createdAt,value
2023-01-17T00:02:11.410Z,7.28
2023-01-17T00:06:11.797Z,6.65
2023-01-17T00:09:53.699Z,7.35
2023-01-17T00:13:35.546Z,6.32
2023-01-17T00:17:17.390Z,8.05
2023-01-17T00:21:17.778Z,6.85
2023-01-17T00:25:18.321Z,6.57
2023-01-17T00:29:00.093Z,7.07
2023-01-17T00:32:41.922Z,7.47
2023-01-17T00:36:23.725Z,8.40
2023-01-17T00:40:06.109Z,8.25
2023-01-17T00:44:06.413Z,8.00
2023-01-17T00:48:06.716Z,7.80
2023-01-17T00:52:07.238Z,14.60
2023-01-17T00:56:08.259Z,9.48
2023-01-17T01:00:08.772Z,9.50
2023-01-17T01:04:09.237Z,8.70
2023-01-17T01:08:09.733Z,8.88
2023-01-17T01:12:10.377Z,8.98
2023-01-17T01:16:10.962Z,8.95
2023-01-17T01:20:11.190Z,8.77
2023-01-17T01:24:11.693Z,9.38
2023-01-17T01:28:12.378Z,10.63
2023-01-17T01:32:12.675Z,9.57
2023-01-17T01:35:55.488Z,9.55
2023-01-17T01:39:37.352Z,11.23
2023-01-17T01:43:21.828Z,9.75
2023-01-17T01:47:03.704Z,9.90
2023-01-17T01:50:48.131Z,11.73
2023-01-17T01:54:34.957Z,11.32
2023-01-17T01:58:24.451Z,10.88
2023-01-17T02:02:07.512Z,10.60
2023-01-17T02:05:49.625Z,10.82
2023-01-17T02:09:31.524Z,10.93
2023-01-17T02:13:16.638Z,11.02
2023-01-17T02:17:04.157Z,10.07
2023-01-17T02:20:57.140Z,9.40
2023-01-17T02:24:53.490Z,9.93
2023-01-17T02:28:47.535Z,10.63
2023-01-17T02:33:06.217Z,10.38
2023-01-17T02:37:08.194Z,11.20
2023-01-17T02:40:55.694Z,10.40
2023-01-17T02:44:42.250Z,10.13
2023-01-17T02:48:27.425Z,10.82
2023-01-17T02:52:14.879Z,10.88
2023-01-17T02:56:18.055Z,10.60
2023-01-17T03:00:14.162Z,9.93
2023-01-17T03:04:04.787Z,9.70
2023-01-17T03:07:48.404Z,9.82
2023-01-17T03:11:30.320Z,10.05
2023-01-17T03:15:14.246Z,9.90
2023-01-17T03:18:56.149Z,10.18
2023-01-17T03:22:38.011Z,10.48
2023-01-17T03:26:19.828Z,10.25
2023-01-17T03:30:02.005Z,10.43
2023-01-17T03:33:43.901Z,10.13
2023-01-17T03:37:25.745Z,9.68
2023-01-17T03:41:07.908Z,9.85
2023-01-17T03:44:49.754Z,9.90
2023-01-17T03:48:31.623Z,10.20
2023-01-17T03:52:13.575Z,10.20
2023-01-17T03:55:55.373Z,10.55
2023-01-17T03:59:37.229Z,11.05
2023-01-17T04:03:19.126Z,10.68
2023-01-17T04:07:01.141Z,11.23
2023-01-17T04:10:42.978Z,11.48
2023-01-17T04:14:24.838Z,11.93
2023-01-17T04:18:07.193Z,11.65
2023-01-17T04:21:49.276Z,11.60
2023-01-17T04:25:31.257Z,10.73
2023-01-17T04:29:13.094Z,12.45
2023-01-17T04:32:55.480Z,13.45
2023-01-17T04:36:38.035Z,13.15
2023-01-17T04:40:20.080Z,13.13
2023-01-17T04:44:02.243Z,13.02
2023-01-17T04:47:44.085Z,12.60
2023-01-17T04:51:25.983Z,12.43
2023-01-17T04:55:08.457Z,12.00
2023-01-17T04:58:50.287Z,11.38
2023-01-17T05:02:32.312Z,12.10
2023-01-17T05:06:14.153Z,12.13
2023-01-17T05:09:56.092Z,12.43
2023-01-17T05:13:37.961Z,12.07
2023-01-17T05:17:20.235Z,12.35
2023-01-17T05:21:03.831Z,10.98
2023-01-17T05:24:47.237Z,11.50
2023-01-17T05:28:29.243Z,11.30
2023-01-17T05:32:11.549Z,12.05
2023-01-17T05:35:53.418Z,13.23
2023-01-17T05:39:35.259Z,11.60
2023-01-17T05:43:17.492Z,11.93
2023-01-17T05:46:59.601Z,11.57
2023-01-17T05:50:41.448Z,12.10
2023-01-17T05:54:23.306Z,13.02
2023-01-17T05:58:06.315Z,13.70
2023-01-17T06:01:48.223Z,14.52
2023-01-17T06:05:31.081Z,12.98
2023-01-17T06:09:12.895Z,12.77
2023-01-17T06:13:22.089Z,12.88
2023-01-17T06:17:04.781Z,11.85
2023-01-17T06:20:52.060Z,11.68
2023-01-17T06:24:34.103Z,11.90
2023-01-17T06:28:18.641Z,12.30
2023-01-17T06:32:01.751Z,12.50
2023-01-17T06:35:50.793Z,13.40
2023-01-17T06:39:32.776Z,12.23
2023-01-17T06:43:14.719Z,12.73
2023-01-17T06:46:56.585Z,13.40
2023-01-17T06:50:38.616Z,12.43
2023-01-17T06:54:20.516Z,12.80
2023-01-17T06:58:03.158Z,12.90
2023-01-17T07:01:45.231Z,13.05
2023-01-17T07:05:28.590Z,11.90
2023-01-17T07:09:10.432Z,12.45
2023-01-17T07:12:57.552Z,13.07
2023-01-17T07:16:39.397Z,12.48
2023-01-17T07:20:21.402Z,12.52
2023-01-17T07:24:03.262Z,13.95
2023-01-17T07:27:45.103Z,13.13
2023-01-17T07:31:26.976Z,11.98
2023-01-17T07:35:09.171Z,12.82
2023-01-17T07:38:50.976Z,15.63
2023-01-17T07:42:32.840Z,18.00
2023-01-17T07:46:17.485Z,16.10
2023-01-17T07:50:01.556Z,17.45
2023-01-17T07:53:43.397Z,14.30
2023-01-17T07:57:25.338Z,14.40
2023-01-17T08:01:09.953Z,14.00
2023-01-17T08:04:51.943Z,16.30
2023-01-17T08:08:33.941Z,17.60
2023-01-17T08:12:15.888Z,16.40
2023-01-17T08:15:57.859Z,15.77
2023-01-17T08:19:39.782Z,15.40
2023-01-17T08:23:22.097Z,16.88
2023-01-17T08:27:04.406Z,15.80
2023-01-17T08:30:46.418Z,16.55
2023-01-17T08:34:28.391Z,15.88
2023-01-17T08:38:10.263Z,15.52
2023-01-17T08:41:52.104Z,21.17
2023-01-17T08:45:34.041Z,23.73
2023-01-17T08:49:16.127Z,23.10
2023-01-17T08:53:01.112Z,24.38
2023-01-17T08:56:43.369Z,18.48
2023-01-17T09:00:25.441Z,16.48
2023-01-17T09:04:10.956Z,17.45
2023-01-17T09:07:52.965Z,17.30
2023-01-17T09:11:34.945Z,19.95
2023-01-17T09:15:20.199Z,23.17
2023-01-17T09:19:02.104Z,29.27
2023-01-17T09:22:45.985Z,24.10
2023-01-17T09:26:29.600Z,21.17
2023-01-17T09:30:11.840Z,27.05
2023-01-17T09:33:54.995Z,21.83
2023-01-17T09:37:36.898Z,25.27
2023-01-17T09:41:24.007Z,23.13
2023-01-17T09:45:16.394Z,21.63
2023-01-17T09:49:04.129Z,20.35
2023-01-17T09:52:46.448Z,24.80
2023-01-17T09:56:48.972Z,19.55
2023-01-17T10:00:59.890Z,17.77
2023-01-17T10:04:41.792Z,17.33
2023-01-17T10:08:57.651Z,18.00
2023-01-17T10:13:01.234Z,16.70
2023-01-17T10:17:04.719Z,15.13
2023-01-17T10:20:56.587Z,12.57
2023-01-17T10:25:13.217Z,12.38
2023-01-17T10:29:04.971Z,12.00
2023-01-17T10:32:49.795Z,10.73
2023-01-17T10:36:38.697Z,9.82
2023-01-17T10:40:52.751Z,10.43
2023-01-17T10:44:40.551Z,10.10
2023-01-17T10:48:38.845Z,8.55
2023-01-17T10:56:05.729Z,8.02
2023-01-17T10:59:47.644Z,14.40
2023-01-17T11:03:29.785Z,18.48
2023-01-17T11:07:23.871Z,6.88
2023-01-17T11:11:05.784Z,6.72
2023-01-17T11:14:54.668Z,6.32
2023-01-17T11:18:39.153Z,8.13
2023-01-17T11:22:22.057Z,8.57
2023-01-17T11:26:07.686Z,7.78
2023-01-17T11:30:15.980Z,7.95
2023-01-17T11:34:16.179Z,6.95
2023-01-17T11:38:02.824Z,6.35
2023-01-17T11:41:47.778Z,6.40
2023-01-17T11:45:32.626Z,7.05
2023-01-17T11:49:25.447Z,6.88
2023-01-17T11:53:25.391Z,5.93
2023-01-17T11:57:36.908Z,12.38
2023-01-17T12:01:39.137Z,9.05
2023-01-17T12:05:42.811Z,6.82
2023-01-17T12:09:46.817Z,6.55
2023-01-17T12:14:02.001Z,6.18
2023-01-17T12:18:24.680Z,5.78
2023-01-17T12:22:25.072Z,5.63
2023-01-17T12:26:37.659Z,7.50
2023-01-17T12:30:47.172Z,7.07
2023-01-17T12:34:50.847Z,6.28
2023-01-17T12:38:39.102Z,6.15
2023-01-17T12:42:29.708Z,5.75
2023-01-17T12:46:38.582Z,6.82
2023-01-17T12:50:44.682Z,5.85
2023-01-17T12:54:55.937Z,5.88
2023-01-17T12:58:45.358Z,5.30
2023-01-17T13:02:44.253Z,5.80
2023-01-17T13:06:52.071Z,6.32
2023-01-17T13:10:41.423Z,6.13
2023-01-17T13:14:23.515Z,4.30
2023-01-17T13:18:23.223Z,5.38
2023-01-17T13:22:08.841Z,3.90
2023-01-17T13:25:51.172Z,4.32
2023-01-17T13:29:52.339Z,4.82
2023-01-17T13:34:09.875Z,4.53
2023-01-17T13:38:06.247Z,4.50
2023-01-17T13:41:54.890Z,5.88
2023-01-17T13:45:38.716Z,5.00
2023-01-17T13:49:40.791Z,5.60
2023-01-17T13:53:28.972Z,3.72
2023-01-17T13:57:46.646Z,4.70
2023-01-17T14:01:38.679Z,6.85
2023-01-17T14:05:41.906Z,6.70
2023-01-17T14:09:31.265Z,6.25
2023-01-17T14:13:31.665Z,10.85
2023-01-17T14:17:16.349Z,10.73
2023-01-17T14:21:23.059Z,7.28
2023-01-17T14:25:17.728Z,8.68
2023-01-17T14:29:48.540Z,8.55
2023-01-17T14:33:36.144Z,8.93
2023-01-17T14:37:24.669Z,7.88
2023-01-17T14:41:09.679Z,6.22
2023-01-17T14:45:13.751Z,6.85
2023-01-17T14:49:07.450Z,6.90
2023-01-17T14:53:17.389Z,5.32
2023-01-17T14:57:28.524Z,5.38
2023-01-17T15:01:14.727Z,5.97
2023-01-17T15:04:56.705Z,5.80
2023-01-17T15:08:38.806Z,6.57
2023-01-17T15:12:21.536Z,6.38
2023-01-17T15:16:08.719Z,5.57
2023-01-17T15:19:57.157Z,6.40
2023-01-17T15:23:44.259Z,5.65
2023-01-17T15:27:26.852Z,7.07
2023-01-17T15:31:19.985Z,9.65
2023-01-17T15:35:03.069Z,8.38
2023-01-17T15:39:00.295Z,9.88
2023-01-17T15:42:44.183Z,10.23
2023-01-17T15:46:41.197Z,11.73
2023-01-17T15:50:30.263Z,12.20
2023-01-17T15:54:35.264Z,10.02
2023-01-17T15:58:28.505Z,9.63
2023-01-17T16:02:36.614Z,14.82
2023-01-17T16:06:45.692Z,13.70
2023-01-17T16:10:32.363Z,28.65
2023-01-17T16:14:14.305Z,21.63
2023-01-17T16:17:57.941Z,14.38
2023-01-17T16:21:39.896Z,35.72
2023-01-17T16:25:23.951Z,17.52
2023-01-17T16:29:07.572Z,13.00
2023-01-17T16:32:50.029Z,31.77
2023-01-17T16:36:31.889Z,27.80
2023-01-17T16:40:15.268Z,59.20
2023-01-17T16:44:02.512Z,32.42
2023-01-17T16:47:46.137Z,77.18
2023-01-17T16:51:28.044Z,27.05
2023-01-17T16:55:14.303Z,32.53
2023-01-17T16:58:56.624Z,22.63
2023-01-17T17:02:40.840Z,16.35
2023-01-17T17:06:22.920Z,15.02
2023-01-17T17:10:05.259Z,14.48
2023-01-17T17:13:49.188Z,24.27
2023-01-17T17:17:35.921Z,21.15
2023-01-17T17:21:17.799Z,29.63
2023-01-17T17:24:59.810Z,40.83
2023-01-17T17:28:41.701Z,32.53
2023-01-17T17:32:24.057Z,29.95
2023-01-17T17:36:08.180Z,35.97
2023-01-17T17:39:50.185Z,33.35
2023-01-17T17:43:39.087Z,34.58
2023-01-17T17:47:21.042Z,19.65
2023-01-17T17:51:04.111Z,16.55
2023-01-17T17:54:45.976Z,15.90
2023-01-17T17:58:27.824Z,12.13
2023-01-17T18:02:11.507Z,15.55
2023-01-17T18:05:53.449Z,27.90
2023-01-17T18:09:35.337Z,28.20
2023-01-17T18:13:17.155Z,20.27
2023-01-17T18:16:59.054Z,17.40
2023-01-17T18:20:40.933Z,15.20
2023-01-17T18:24:24.602Z,15.98
2023-01-17T18:28:06.445Z,17.55
2023-01-17T18:31:52.949Z,20.40
2023-01-17T18:35:34.908Z,23.48
2023-01-17T18:39:19.461Z,21.15
2023-01-17T18:43:01.317Z,15.75
2023-01-17T18:46:43.673Z,25.58
2023-01-17T18:50:26.809Z,16.63
2023-01-17T18:54:08.998Z,19.00
2023-01-17T18:57:50.911Z,15.48
2023-01-17T19:01:35.786Z,18.30
2023-01-17T19:05:21.577Z,14.15
2023-01-17T19:09:04.659Z,11.52
2023-01-17T19:12:46.981Z,11.15
2023-01-17T19:16:31.242Z,10.73
2023-01-17T19:20:13.362Z,12.95
2023-01-17T19:23:56.331Z,15.13
2023-01-17T19:27:38.201Z,16.15
2023-01-17T19:31:22.853Z,26.98
2023-01-17T19:35:05.063Z,37.97
2023-01-17T19:39:03.075Z,35.00
2023-01-17T19:42:46.651Z,29.42
2023-01-17T19:46:29.000Z,31.90
2023-01-17T19:50:12.540Z,13.05
2023-01-17T19:53:55.068Z,9.63
2023-01-17T19:57:37.639Z,9.70
2023-01-17T20:01:24.025Z,9.75
2023-01-17T20:05:06.574Z,12.15
2023-01-17T20:08:48.834Z,14.65
2023-01-17T20:12:31.179Z,6.38
2023-01-17T20:16:15.511Z,6.80
2023-01-17T20:19:57.524Z,6.10
2023-01-17T20:23:46.852Z,5.45
2023-01-17T20:27:28.741Z,5.65
2023-01-17T20:31:16.404Z,5.22
2023-01-17T20:34:58.356Z,5.25
2023-01-17T20:38:46.389Z,6.18
2023-01-17T20:42:28.313Z,6.47
2023-01-17T20:46:10.951Z,5.32
2023-01-17T20:49:52.883Z,5.75
2023-01-17T20:53:35.244Z,4.90
2023-01-17T20:57:17.113Z,5.43
2023-01-17T21:00:59.374Z,4.72
2023-01-17T21:04:41.444Z,5.10
2023-01-17T21:08:23.417Z,7.82
2023-01-17T21:12:05.459Z,9.70
2023-01-17T21:15:49.725Z,7.00
2023-01-17T21:19:31.650Z,8.45
2023-01-17T21:23:29.170Z,7.88
2023-01-17T21:27:12.900Z,7.95
2023-01-17T21:30:55.285Z,5.28
2023-01-17T21:34:37.303Z,5.05
2023-01-17T21:38:19.489Z,4.57
2023-01-17T21:42:01.425Z,4.47
2023-01-17T21:45:43.384Z,5.50
2023-01-17T21:49:25.346Z,6.13
2023-01-17T21:53:10.034Z,4.65
2023-01-17T21:57:10.549Z,5.15
2023-01-17T22:01:07.699Z,4.72
2023-01-17T22:04:49.950Z,4.97
2023-01-17T22:08:35.410Z,5.53
2023-01-17T22:12:17.343Z,5.43
2023-01-17T22:16:01.211Z,5.57
2023-01-17T22:19:43.153Z,5.15
2023-01-17T22:23:25.105Z,5.22
2023-01-17T22:27:10.563Z,4.43
2023-01-17T22:30:52.486Z,4.10
2023-01-17T22:34:34.463Z,3.90
2023-01-17T22:38:16.783Z,4.53
2023-01-17T22:41:59.378Z,3.20
2023-01-17T22:45:41.215Z,4.20
2023-01-17T22:49:23.615Z,4.70
2023-01-17T22:53:05.485Z,3.75
2023-01-17T22:56:48.703Z,3.85
2023-01-17T23:00:31.603Z,3.22
2023-01-17T23:04:16.044Z,3.85
2023-01-17T23:07:57.977Z,3.17
2023-01-17T23:11:43.407Z,5.22
2023-01-17T23:15:45.728Z,3.20
2023-01-17T23:19:30.453Z,4.40
2023-01-17T23:23:12.281Z,3.65
2023-01-17T23:27:12.694Z,3.38
2023-01-17T23:30:54.637Z,2.72
2023-01-17T23:34:36.557Z,3.03
2023-01-17T23:38:33.903Z,3.13
2023-01-17T23:42:38.933Z,2.70
2023-01-17T23:46:21.335Z,3.17
2023-01-17T23:50:03.289Z,2.33
2023-01-17T23:53:45.159Z,2.33
2023-01-17T23:57:27.000Z,2.80
